sensor_id;sensor_type;location;lat;lon;timestamp;P1;durP1;ratioP1;P2;durP2;ratioP2
42834;SDS011;29335;50.526;30.458;2022-09-02T00:00:46;7.70;;;4.07;;
42834;SDS011;29335;50.526;30.458;2022-09-02T00:03:14;7.78;;;4.20;;
42834;SDS011;29335;50.526;30.458;2022-09-02T00:05:41;7.55;;;4.50;;
42834;SDS011;29335;50.526;30.458;2022-09-02T00:08:07;7.82;;;4.38;;
42834;SDS011;29335;50.526;30.458;2022-09-02T00:10:34;6.95;;;3.80;;
42834;SDS011;29335;50.526;30.458;2022-09-02T00:13:01;7.72;;;4.93;;
42834;SDS011;29335;50.526;30.458;2022-09-02T00:15:27;10.13;;;4.60;;
42834;SDS011;29335;50.526;30.458;2022-09-02T00:17:53;8.77;;;5.72;;
42834;SDS011;29335;50.526;30.458;2022-09-02T00:20:18;9.18;;;5.93;;
42834;SDS011;29335;50.526;30.458;2022-09-02T00:22:44;10.00;;;6.10;;
42834;SDS011;29335;50.526;30.458;2022-09-02T00:25:10;10.82;;;6.75;;
42834;SDS011;29335;50.526;30.458;2022-09-02T00:27:36;11.25;;;7.43;;
42834;SDS011;29335;50.526;30.458;2022-09-02T00:30:02;11.43;;;6.30;;
42834;SDS011;29335;50.526;30.458;2022-09-02T00:32:29;9.70;;;5.93;;
42834;SDS011;29335;50.526;30.458;2022-09-02T00:34:55;9.48;;;5.57;;
42834;SDS011;29335;50.526;30.458;2022-09-02T00:37:22;8.85;;;4.72;;
42834;SDS011;29335;50.526;30.458;2022-09-02T00:39:50;5.07;;;3.67;;
42834;SDS011;29335;50.526;30.458;2022-09-02T00:42:18;7.97;;;4.63;;
42834;SDS011;29335;50.526;30.458;2022-09-02T00:44:45;6.53;;;4.32;;
42834;SDS011;29335;50.526;30.458;2022-09-02T00:47:12;9.70;;;5.10;;
42834;SDS011;29335;50.526;30.458;2022-09-02T00:49:39;8.13;;;5.15;;
42834;SDS011;29335;50.526;30.458;2022-09-02T00:52:22;12.00;;;5.07;;
42834;SDS011;29335;50.526;30.458;2022-09-02T00:54:55;10.02;;;5.13;;
42834;SDS011;29335;50.526;30.458;2022-09-02T00:57:25;9.40;;;4.30;;
42834;SDS011;29335;50.526;30.458;2022-09-02T01:02:30;5.82;;;3.90;;
42834;SDS011;29335;50.526;30.458;2022-09-02T01:05:00;7.00;;;3.90;;
42834;SDS011;29335;50.526;30.458;2022-09-02T01:07:29;5.97;;;3.05;;
42834;SDS011;29335;50.526;30.458;2022-09-02T01:09:58;5.90;;;3.67;;
42834;SDS011;29335;50.526;30.458;2022-09-02T01:12:24;7.70;;;3.60;;
42834;SDS011;29335;50.526;30.458;2022-09-02T01:14:51;7.18;;;3.33;;
42834;SDS011;29335;50.526;30.458;2022-09-02T01:17:17;6.63;;;3.15;;
42834;SDS011;29335;50.526;30.458;2022-09-02T01:19:45;7.90;;;3.63;;
42834;SDS011;29335;50.526;30.458;2022-09-02T01:22:18;5.78;;;3.40;;
42834;SDS011;29335;50.526;30.458;2022-09-02T01:24:46;5.70;;;3.25;;
42834;SDS011;29335;50.526;30.458;2022-09-02T01:27:16;5.90;;;2.70;;
42834;SDS011;29335;50.526;30.458;2022-09-02T01:29:44;6.38;;;3.25;;
42834;SDS011;29335;50.526;30.458;2022-09-02T01:32:14;8.70;;;2.63;;
42834;SDS011;29335;50.526;30.458;2022-09-02T01:34:39;7.75;;;3.65;;
42834;SDS011;29335;50.526;30.458;2022-09-02T01:37:05;5.63;;;2.70;;
42834;SDS011;29335;50.526;30.458;2022-09-02T01:39:31;4.03;;;2.55;;
42834;SDS011;29335;50.526;30.458;2022-09-02T01:41:56;4.93;;;2.10;;
42834;SDS011;29335;50.526;30.458;2022-09-02T01:44:22;7.45;;;3.50;;
42834;SDS011;29335;50.526;30.458;2022-09-02T01:46:51;6.65;;;4.55;;
42834;SDS011;29335;50.526;30.458;2022-09-02T01:49:17;14.95;;;8.43;;
42834;SDS011;29335;50.526;30.458;2022-09-02T01:51:43;25.08;;;16.10;;
42834;SDS011;29335;50.526;30.458;2022-09-02T01:54:09;29.05;;;16.45;;
42834;SDS011;29335;50.526;30.458;2022-09-02T01:56:34;27.65;;;17.85;;
42834;SDS011;29335;50.526;30.458;2022-09-02T01:59:00;35.95;;;25.55;;
42834;SDS011;29335;50.526;30.458;2022-09-02T02:01:26;41.72;;;25.30;;
42834;SDS011;29335;50.526;30.458;2022-09-02T02:03:52;51.60;;;31.98;;
42834;SDS011;29335;50.526;30.458;2022-09-02T02:06:18;53.88;;;35.50;;
42834;SDS011;29335;50.526;30.458;2022-09-02T02:08:44;52.05;;;32.42;;
42834;SDS011;29335;50.526;30.458;2022-09-02T02:11:10;49.42;;;31.25;;
42834;SDS011;29335;50.526;30.458;2022-09-02T02:13:42;39.70;;;25.70;;
42834;SDS011;29335;50.526;30.458;2022-09-02T02:16:07;49.72;;;30.35;;
42834;SDS011;29335;50.526;30.458;2022-09-02T02:18:34;59.38;;;40.22;;
42834;SDS011;29335;50.526;30.458;2022-09-02T02:20:59;50.38;;;34.45;;
42834;SDS011;29335;50.526;30.458;2022-09-02T02:23:25;48.42;;;31.48;;
42834;SDS011;29335;50.526;30.458;2022-09-02T02:25:51;38.45;;;25.10;;
42834;SDS011;29335;50.526;30.458;2022-09-02T02:28:16;41.90;;;28.25;;
42834;SDS011;29335;50.526;30.458;2022-09-02T02:30:42;54.60;;;35.42;;
42834;SDS011;29335;50.526;30.458;2022-09-02T02:33:07;58.53;;;39.08;;
42834;SDS011;29335;50.526;30.458;2022-09-02T02:35:33;50.75;;;33.78;;
42834;SDS011;29335;50.526;30.458;2022-09-02T02:37:59;54.30;;;32.40;;
42834;SDS011;29335;50.526;30.458;2022-09-02T02:40:24;50.35;;;32.97;;
42834;SDS011;29335;50.526;30.458;2022-09-02T02:42:50;45.95;;;31.00;;
42834;SDS011;29335;50.526;30.458;2022-09-02T02:45:17;52.35;;;32.35;;
42834;SDS011;29335;50.526;30.458;2022-09-02T02:47:43;56.28;;;36.78;;
42834;SDS011;29335;50.526;30.458;2022-09-02T02:50:13;43.85;;;24.63;;
42834;SDS011;29335;50.526;30.458;2022-09-02T02:52:41;72.57;;;44.92;;
42834;SDS011;29335;50.526;30.458;2022-09-02T02:55:07;56.80;;;30.75;;
42834;SDS011;29335;50.526;30.458;2022-09-02T02:57:35;75.25;;;45.35;;
42834;SDS011;29335;50.526;30.458;2022-09-02T03:00:08;99.13;;;62.13;;
42834;SDS011;29335;50.526;30.458;2022-09-02T03:03:04;106.78;;;63.90;;
42834;SDS011;29335;50.526;30.458;2022-09-02T03:05:32;71.05;;;33.35;;
42834;SDS011;29335;50.526;30.458;2022-09-02T03:07:59;107.43;;;61.97;;
42834;SDS011;29335;50.526;30.458;2022-09-02T03:10:25;95.00;;;56.53;;
42834;SDS011;29335;50.526;30.458;2022-09-02T03:12:51;102.72;;;53.70;;
42834;SDS011;29335;50.526;30.458;2022-09-02T03:15:17;109.43;;;60.03;;
42834;SDS011;29335;50.526;30.458;2022-09-02T03:17:47;133.48;;;76.75;;
42834;SDS011;29335;50.526;30.458;2022-09-02T03:20:14;118.70;;;66.43;;
42834;SDS011;29335;50.526;30.458;2022-09-02T03:22:44;133.95;;;73.68;;
42834;SDS011;29335;50.526;30.458;2022-09-02T03:25:13;152.53;;;83.83;;
42834;SDS011;29335;50.526;30.458;2022-09-02T03:27:40;135.98;;;86.03;;
42834;SDS011;29335;50.526;30.458;2022-09-02T03:30:10;146.52;;;81.65;;
42834;SDS011;29335;50.526;30.458;2022-09-02T03:32:38;119.20;;;65.88;;
42834;SDS011;29335;50.526;30.458;2022-09-02T03:35:05;149.23;;;87.65;;
42834;SDS011;29335;50.526;30.458;2022-09-02T03:37:33;103.55;;;52.45;;
42834;SDS011;29335;50.526;30.458;2022-09-02T03:40:06;120.75;;;68.07;;
42834;SDS011;29335;50.526;30.458;2022-09-02T03:42:34;84.03;;;46.25;;
42834;SDS011;29335;50.526;30.458;2022-09-02T03:44:59;106.78;;;57.92;;
42834;SDS011;29335;50.526;30.458;2022-09-02T03:47:25;134.75;;;67.50;;
42834;SDS011;29335;50.526;30.458;2022-09-02T03:49:53;86.18;;;48.75;;
42834;SDS011;29335;50.526;30.458;2022-09-02T03:52:19;98.60;;;62.10;;
42834;SDS011;29335;50.526;30.458;2022-09-02T03:54:45;94.53;;;54.42;;
42834;SDS011;29335;50.526;30.458;2022-09-02T03:57:11;88.30;;;56.00;;
42834;SDS011;29335;50.526;30.458;2022-09-02T03:59:37;87.07;;;55.30;;
42834;SDS011;29335;50.526;30.458;2022-09-02T04:02:02;74.05;;;49.80;;
42834;SDS011;29335;50.526;30.458;2022-09-02T04:04:28;77.20;;;48.83;;
42834;SDS011;29335;50.526;30.458;2022-09-02T04:06:55;70.45;;;41.72;;
42834;SDS011;29335;50.526;30.458;2022-09-02T04:09:21;75.68;;;46.45;;
42834;SDS011;29335;50.526;30.458;2022-09-02T04:11:46;72.25;;;45.17;;
42834;SDS011;29335;50.526;30.458;2022-09-02T04:14:12;67.18;;;44.83;;
42834;SDS011;29335;50.526;30.458;2022-09-02T04:16:38;68.47;;;45.30;;
42834;SDS011;29335;50.526;30.458;2022-09-02T04:19:04;64.75;;;43.20;;
42834;SDS011;29335;50.526;30.458;2022-09-02T04:21:34;65.35;;;42.47;;
42834;SDS011;29335;50.526;30.458;2022-09-02T04:24:02;63.35;;;44.47;;
42834;SDS011;29335;50.526;30.458;2022-09-02T04:26:29;61.22;;;40.28;;
42834;SDS011;29335;50.526;30.458;2022-09-02T04:28:54;65.88;;;42.63;;
42834;SDS011;29335;50.526;30.458;2022-09-02T04:31:21;68.43;;;42.92;;
42834;SDS011;29335;50.526;30.458;2022-09-02T04:33:49;65.68;;;44.08;;
42834;SDS011;29335;50.526;30.458;2022-09-02T04:36:16;68.47;;;44.13;;
42834;SDS011;29335;50.526;30.458;2022-09-02T04:38:42;64.65;;;42.08;;
42834;SDS011;29335;50.526;30.458;2022-09-02T04:41:09;76.00;;;50.95;;
42834;SDS011;29335;50.526;30.458;2022-09-02T04:43:37;79.72;;;50.22;;
42834;SDS011;29335;50.526;30.458;2022-09-02T04:46:06;72.82;;;49.67;;
42834;SDS011;29335;50.526;30.458;2022-09-02T04:48:34;85.85;;;53.42;;
42834;SDS011;29335;50.526;30.458;2022-09-02T04:51:10;76.30;;;51.42;;
42834;SDS011;29335;50.526;30.458;2022-09-02T04:53:38;80.90;;;51.90;;
42834;SDS011;29335;50.526;30.458;2022-09-02T04:56:05;70.82;;;46.70;;
42834;SDS011;29335;50.526;30.458;2022-09-02T04:58:33;83.40;;;53.40;;
42834;SDS011;29335;50.526;30.458;2022-09-02T05:01:04;68.75;;;46.15;;
42834;SDS011;29335;50.526;30.458;2022-09-02T05:03:34;59.28;;;40.22;;
42834;SDS011;29335;50.526;30.458;2022-09-02T05:06:02;67.78;;;42.67;;
42834;SDS011;29335;50.526;30.458;2022-09-02T05:08:30;62.55;;;37.97;;
42834;SDS011;29335;50.526;30.458;2022-09-02T05:10:56;54.97;;;33.50;;
42834;SDS011;29335;50.526;30.458;2022-09-02T05:13:23;56.08;;;34.28;;
42834;SDS011;29335;50.526;30.458;2022-09-02T05:15:50;54.92;;;33.70;;
42834;SDS011;29335;50.526;30.458;2022-09-02T05:18:16;48.10;;;32.97;;
42834;SDS011;29335;50.526;30.458;2022-09-02T05:20:43;55.53;;;33.78;;
42834;SDS011;29335;50.526;30.458;2022-09-02T05:23:10;55.30;;;31.63;;
42834;SDS011;29335;50.526;30.458;2022-09-02T05:25:37;53.42;;;32.13;;
42834;SDS011;29335;50.526;30.458;2022-09-02T05:28:04;56.10;;;34.35;;
42834;SDS011;29335;50.526;30.458;2022-09-02T05:30:30;56.47;;;34.30;;
42834;SDS011;29335;50.526;30.458;2022-09-02T05:32:56;54.90;;;36.28;;
42834;SDS011;29335;50.526;30.458;2022-09-02T05:35:22;52.53;;;36.60;;
42834;SDS011;29335;50.526;30.458;2022-09-02T05:37:47;48.53;;;33.22;;
42834;SDS011;29335;50.526;30.458;2022-09-02T05:40:13;53.17;;;35.20;;
42834;SDS011;29335;50.526;30.458;2022-09-02T05:42:39;45.42;;;29.55;;
42834;SDS011;29335;50.526;30.458;2022-09-02T05:45:05;47.15;;;30.08;;
42834;SDS011;29335;50.526;30.458;2022-09-02T05:47:34;45.15;;;28.80;;
42834;SDS011;29335;50.526;30.458;2022-09-02T05:50:00;47.90;;;31.40;;
42834;SDS011;29335;50.526;30.458;2022-09-02T05:52:26;41.08;;;27.20;;
42834;SDS011;29335;50.526;30.458;2022-09-02T05:54:52;45.53;;;27.73;;
42834;SDS011;29335;50.526;30.458;2022-09-02T05:57:19;18.08;;;11.98;;
42834;SDS011;29335;50.526;30.458;2022-09-02T05:59:45;35.53;;;24.25;;
42834;SDS011;29335;50.526;30.458;2022-09-02T06:02:13;36.25;;;21.77;;
42834;SDS011;29335;50.526;30.458;2022-09-02T06:04:42;33.85;;;22.33;;
42834;SDS011;29335;50.526;30.458;2022-09-02T06:07:12;32.00;;;20.67;;
42834;SDS011;29335;50.526;30.458;2022-09-02T06:09:39;26.52;;;17.70;;
42834;SDS011;29335;50.526;30.458;2022-09-02T06:12:06;30.55;;;18.70;;
42834;SDS011;29335;50.526;30.458;2022-09-02T06:14:33;29.60;;;19.17;;
42834;SDS011;29335;50.526;30.458;2022-09-02T06:16:59;29.30;;;18.33;;
42834;SDS011;29335;50.526;30.458;2022-09-02T06:19:25;28.52;;;16.73;;
42834;SDS011;29335;50.526;30.458;2022-09-02T06:21:54;23.50;;;14.95;;
42834;SDS011;29335;50.526;30.458;2022-09-02T06:24:20;26.27;;;15.32;;
42834;SDS011;29335;50.526;30.458;2022-09-02T06:26:47;23.20;;;15.23;;
42834;SDS011;29335;50.526;30.458;2022-09-02T06:29:12;29.63;;;16.55;;
42834;SDS011;29335;50.526;30.458;2022-09-02T06:31:39;25.08;;;15.55;;
42834;SDS011;29335;50.526;30.458;2022-09-02T06:34:06;22.33;;;14.93;;
42834;SDS011;29335;50.526;30.458;2022-09-02T06:36:33;20.17;;;11.95;;
42834;SDS011;29335;50.526;30.458;2022-09-02T06:38:59;20.55;;;13.23;;
42834;SDS011;29335;50.526;30.458;2022-09-02T06:41:26;20.20;;;13.38;;
42834;SDS011;29335;50.526;30.458;2022-09-02T06:43:54;19.73;;;11.98;;
42834;SDS011;29335;50.526;30.458;2022-09-02T06:46:26;20.30;;;11.23;;
42834;SDS011;29335;50.526;30.458;2022-09-02T06:48:57;14.70;;;9.23;;
42834;SDS011;29335;50.526;30.458;2022-09-02T06:51:33;15.15;;;8.82;;
42834;SDS011;29335;50.526;30.458;2022-09-02T06:54:01;15.25;;;9.27;;
42834;SDS011;29335;50.526;30.458;2022-09-02T06:56:28;15.60;;;9.60;;
42834;SDS011;29335;50.526;30.458;2022-09-02T06:58:53;12.50;;;6.45;;
42834;SDS011;29335;50.526;30.458;2022-09-02T07:01:21;10.73;;;6.85;;
42834;SDS011;29335;50.526;30.458;2022-09-02T07:03:48;10.27;;;6.13;;
42834;SDS011;29335;50.526;30.458;2022-09-02T07:06:34;15.15;;;8.05;;
42834;SDS011;29335;50.526;30.458;2022-09-02T07:09:02;15.82;;;7.75;;
42834;SDS011;29335;50.526;30.458;2022-09-02T07:11:32;14.63;;;7.45;;
42834;SDS011;29335;50.526;30.458;2022-09-02T07:13:59;8.48;;;5.38;;
42834;SDS011;29335;50.526;30.458;2022-09-02T07:16:26;8.20;;;5.53;;
42834;SDS011;29335;50.526;30.458;2022-09-02T07:18:53;10.63;;;5.63;;
42834;SDS011;29335;50.526;30.458;2022-09-02T07:21:20;11.13;;;5.97;;
42834;SDS011;29335;50.526;30.458;2022-09-02T07:23:45;8.75;;;5.60;;
42834;SDS011;29335;50.526;30.458;2022-09-02T07:26:15;8.45;;;4.28;;
42834;SDS011;29335;50.526;30.458;2022-09-02T07:28:41;10.93;;;5.97;;
42834;SDS011;29335;50.526;30.458;2022-09-02T07:31:11;8.68;;;4.45;;
42834;SDS011;29335;50.526;30.458;2022-09-02T07:33:38;11.18;;;5.85;;
42834;SDS011;29335;50.526;30.458;2022-09-02T07:36:04;10.35;;;5.80;;
42834;SDS011;29335;50.526;30.458;2022-09-02T07:38:32;7.57;;;4.03;;
42834;SDS011;29335;50.526;30.458;2022-09-02T07:40:58;7.97;;;4.75;;
42834;SDS011;29335;50.526;30.458;2022-09-02T07:43:25;10.70;;;5.40;;
42834;SDS011;29335;50.526;30.458;2022-09-02T07:45:51;9.55;;;4.78;;
42834;SDS011;29335;50.526;30.458;2022-09-02T07:48:20;6.25;;;3.85;;
42834;SDS011;29335;50.526;30.458;2022-09-02T07:50:48;8.77;;;4.50;;
42834;SDS011;29335;50.526;30.458;2022-09-02T07:53:14;9.52;;;4.53;;
42834;SDS011;29335;50.526;30.458;2022-09-02T07:55:41;6.00;;;4.15;;
42834;SDS011;29335;50.526;30.458;2022-09-02T07:58:08;8.48;;;4.68;;
42834;SDS011;29335;50.526;30.458;2022-09-02T08:00:35;6.47;;;3.78;;
42834;SDS011;29335;50.526;30.458;2022-09-02T08:03:01;10.77;;;3.67;;
42834;SDS011;29335;50.526;30.458;2022-09-02T08:05:29;6.63;;;3.38;;
42834;SDS011;29335;50.526;30.458;2022-09-02T08:07:55;5.22;;;2.97;;
42834;SDS011;29335;50.526;30.458;2022-09-02T08:10:21;5.13;;;3.20;;
42834;SDS011;29335;50.526;30.458;2022-09-02T08:12:49;5.00;;;2.45;;
42834;SDS011;29335;50.526;30.458;2022-09-02T08:15:16;3.75;;;1.80;;
42834;SDS011;29335;50.526;30.458;2022-09-02T08:17:44;5.47;;;2.63;;
42834;SDS011;29335;50.526;30.458;2022-09-02T08:20:10;7.28;;;2.50;;
42834;SDS011;29335;50.526;30.458;2022-09-02T08:22:37;5.57;;;2.75;;
42834;SDS011;29335;50.526;30.458;2022-09-02T08:25:03;7.35;;;3.20;;
42834;SDS011;29335;50.526;30.458;2022-09-02T08:27:29;5.35;;;2.97;;
42834;SDS011;29335;50.526;30.458;2022-09-02T08:29:56;7.00;;;2.90;;
42834;SDS011;29335;50.526;30.458;2022-09-02T08:32:23;5.72;;;3.20;;
42834;SDS011;29335;50.526;30.458;2022-09-02T08:34:49;6.28;;;2.95;;
42834;SDS011;29335;50.526;30.458;2022-09-02T08:37:15;5.07;;;2.78;;
42834;SDS011;29335;50.526;30.458;2022-09-02T08:39:42;7.10;;;3.08;;
42834;SDS011;29335;50.526;30.458;2022-09-02T08:44:53;6.93;;;3.10;;
42834;SDS011;29335;50.526;30.458;2022-09-02T08:47:25;6.50;;;3.33;;
42834;SDS011;29335;50.526;30.458;2022-09-02T08:49:56;5.95;;;3.85;;
42834;SDS011;29335;50.526;30.458;2022-09-02T08:52:32;7.35;;;3.53;;
42834;SDS011;29335;50.526;30.458;2022-09-02T08:55:11;7.28;;;3.55;;
42834;SDS011;29335;50.526;30.458;2022-09-02T08:57:43;5.78;;;3.33;;
42834;SDS011;29335;50.526;30.458;2022-09-02T09:00:10;6.25;;;3.72;;
42834;SDS011;29335;50.526;30.458;2022-09-02T09:10:58;6.25;;;3.90;;
42834;SDS011;29335;50.526;30.458;2022-09-02T09:13:37;6.78;;;4.00;;
42834;SDS011;29335;50.526;30.458;2022-09-02T09:21:35;8.27;;;4.30;;
42834;SDS011;29335;50.526;30.458;2022-09-02T09:24:02;6.07;;;4.07;;
42834;SDS011;29335;50.526;30.458;2022-09-02T09:26:52;6.85;;;3.83;;
42834;SDS011;29335;50.526;30.458;2022-09-02T09:29:19;4.88;;;3.20;;
42834;SDS011;29335;50.526;30.458;2022-09-02T09:31:45;5.35;;;3.63;;
42834;SDS011;29335;50.526;30.458;2022-09-02T09:34:17;9.25;;;4.68;;
42834;SDS011;29335;50.526;30.458;2022-09-02T09:36:52;7.70;;;4.75;;
42834;SDS011;29335;50.526;30.458;2022-09-02T09:41:54;7.78;;;4.80;;
42834;SDS011;29335;50.526;30.458;2022-09-02T09:44:37;8.63;;;4.82;;
42834;SDS011;29335;50.526;30.458;2022-09-02T09:47:12;7.93;;;4.43;;
42834;SDS011;29335;50.526;30.458;2022-09-02T09:49:43;8.57;;;4.60;;
42834;SDS011;29335;50.526;30.458;2022-09-02T09:52:23;5.72;;;4.10;;
42834;SDS011;29335;50.526;30.458;2022-09-02T09:57:44;6.00;;;4.28;;
42834;SDS011;29335;50.526;30.458;2022-09-02T10:02:57;5.70;;;4.65;;
42834;SDS011;29335;50.526;30.458;2022-09-02T10:05:32;6.25;;;4.35;;
42834;SDS011;29335;50.526;30.458;2022-09-02T10:08:24;7.50;;;4.20;;
42834;SDS011;29335;50.526;30.458;2022-09-02T10:11:04;9.82;;;5.10;;
42834;SDS011;29335;50.526;30.458;2022-09-02T10:13:43;8.48;;;4.80;;
42834;SDS011;29335;50.526;30.458;2022-09-02T10:22:31;11.00;;;7.07;;
42834;SDS011;29335;50.526;30.458;2022-09-02T10:27:50;14.70;;;8.27;;
42834;SDS011;29335;50.526;30.458;2022-09-02T10:30:44;11.30;;;4.07;;
42834;SDS011;29335;50.526;30.458;2022-09-02T10:35:55;8.50;;;5.50;;
42834;SDS011;29335;50.526;30.458;2022-09-02T10:38:41;8.77;;;5.40;;
42834;SDS011;29335;50.526;30.458;2022-09-02T10:46:26;12.18;;;8.48;;
42834;SDS011;29335;50.526;30.458;2022-09-02T10:57:14;8.70;;;5.78;;
42834;SDS011;29335;50.526;30.458;2022-09-02T10:59:55;14.13;;;7.95;;
42834;SDS011;29335;50.526;30.458;2022-09-02T11:02:33;14.80;;;9.68;;
42834;SDS011;29335;50.526;30.458;2022-09-02T11:05:04;10.98;;;7.15;;
42834;SDS011;29335;50.526;30.458;2022-09-02T11:10:31;10.80;;;7.20;;
42834;SDS011;29335;50.526;30.458;2022-09-02T11:15:37;13.02;;;8.05;;
42834;SDS011;29335;50.526;30.458;2022-09-02T11:18:25;9.70;;;6.97;;
42834;SDS011;29335;50.526;30.458;2022-09-02T11:21:02;10.82;;;7.70;;
42834;SDS011;29335;50.526;30.458;2022-09-02T11:23:40;12.82;;;7.75;;
42834;SDS011;29335;50.526;30.458;2022-09-02T11:26:45;13.35;;;7.97;;
42834;SDS011;29335;50.526;30.458;2022-09-02T11:29:21;13.35;;;9.02;;
42834;SDS011;29335;50.526;30.458;2022-09-02T11:32:00;12.80;;;7.80;;
42834;SDS011;29335;50.526;30.458;2022-09-02T11:34:39;13.32;;;9.18;;
42834;SDS011;29335;50.526;30.458;2022-09-02T11:37:10;12.48;;;9.23;;
42834;SDS011;29335;50.526;30.458;2022-09-02T11:39:59;18.83;;;9.60;;
42834;SDS011;29335;50.526;30.458;2022-09-02T11:51:23;14.68;;;9.85;;
42834;SDS011;29335;50.526;30.458;2022-09-02T11:53:49;14.88;;;9.75;;
42834;SDS011;29335;50.526;30.458;2022-09-02T11:56:21;14.07;;;10.00;;
42834;SDS011;29335;50.526;30.458;2022-09-02T11:58:53;18.08;;;11.68;;
42834;SDS011;29335;50.526;30.458;2022-09-02T12:04:24;17.83;;;11.57;;
42834;SDS011;29335;50.526;30.458;2022-09-02T12:09:42;16.25;;;10.98;;
42834;SDS011;29335;50.526;30.458;2022-09-02T12:15:02;15.60;;;10.10;;
42834;SDS011;29335;50.526;30.458;2022-09-02T12:23:01;20.27;;;12.35;;
42834;SDS011;29335;50.526;30.458;2022-09-02T12:33:35;13.68;;;11.23;;
42834;SDS011;29335;50.526;30.458;2022-09-02T12:36:03;16.48;;;10.80;;
42834;SDS011;29335;50.526;30.458;2022-09-02T12:38:34;15.13;;;11.15;;
42834;SDS011;29335;50.526;30.458;2022-09-02T12:49:20;15.77;;;10.93;;
42834;SDS011;29335;50.526;30.458;2022-09-02T12:52:00;16.05;;;10.68;;
42834;SDS011;29335;50.526;30.458;2022-09-02T12:54:30;15.00;;;10.80;;
42834;SDS011;29335;50.526;30.458;2022-09-02T12:57:13;14.35;;;10.43;;
42834;SDS011;29335;50.526;30.458;2022-09-02T12:59:43;15.65;;;11.18;;
42834;SDS011;29335;50.526;30.458;2022-09-02T13:02:13;15.25;;;11.13;;
42834;SDS011;29335;50.526;30.458;2022-09-02T13:22:03;21.30;;;13.20;;
42834;SDS011;29335;50.526;30.458;2022-09-02T13:27:56;16.90;;;11.77;;
42834;SDS011;29335;50.526;30.458;2022-09-02T13:33:04;18.10;;;12.10;;
42834;SDS011;29335;50.526;30.458;2022-09-02T13:35:32;20.42;;;12.80;;
42834;SDS011;29335;50.526;30.458;2022-09-02T13:38:02;19.90;;;13.35;;
42834;SDS011;29335;50.526;30.458;2022-09-02T13:40:29;22.00;;;14.02;;
42834;SDS011;29335;50.526;30.458;2022-09-02T13:43:21;18.42;;;13.38;;
42834;SDS011;29335;50.526;30.458;2022-09-02T13:45:48;17.52;;;12.15;;
42834;SDS011;29335;50.526;30.458;2022-09-02T13:48:24;15.77;;;11.75;;
42834;SDS011;29335;50.526;30.458;2022-09-02T13:50:52;19.60;;;12.10;;
42834;SDS011;29335;50.526;30.458;2022-09-02T13:55:56;19.27;;;13.32;;
42834;SDS011;29335;50.526;30.458;2022-09-02T14:01:15;18.58;;;13.23;;
42834;SDS011;29335;50.526;30.458;2022-09-02T14:03:48;16.83;;;12.38;;
42834;SDS011;29335;50.526;30.458;2022-09-02T14:06:16;18.45;;;12.50;;
42834;SDS011;29335;50.526;30.458;2022-09-02T14:08:44;16.08;;;11.55;;
42834;SDS011;29335;50.526;30.458;2022-09-02T14:11:14;15.95;;;11.35;;
42834;SDS011;29335;50.526;30.458;2022-09-02T14:13:41;18.13;;;12.68;;
42834;SDS011;29335;50.526;30.458;2022-09-02T14:16:24;14.57;;;11.10;;
42834;SDS011;29335;50.526;30.458;2022-09-02T14:24:13;13.55;;;10.25;;
42834;SDS011;29335;50.526;30.458;2022-09-02T14:26:43;15.73;;;9.35;;
42834;SDS011;29335;50.526;30.458;2022-09-02T14:29:16;15.13;;;10.32;;
42834;SDS011;29335;50.526;30.458;2022-09-02T14:31:44;13.43;;;9.73;;
42834;SDS011;29335;50.526;30.458;2022-09-02T14:37:21;13.50;;;9.30;;
42834;SDS011;29335;50.526;30.458;2022-09-02T14:40:06;15.82;;;11.65;;
42834;SDS011;29335;50.526;30.458;2022-09-02T14:45:08;19.33;;;14.27;;
42834;SDS011;29335;50.526;30.458;2022-09-02T14:47:36;21.17;;;13.65;;
42834;SDS011;29335;50.526;30.458;2022-09-02T14:50:03;19.83;;;12.57;;
42834;SDS011;29335;50.526;30.458;2022-09-02T14:52:35;18.42;;;12.70;;
42834;SDS011;29335;50.526;30.458;2022-09-02T14:55:03;19.23;;;12.80;;
42834;SDS011;29335;50.526;30.458;2022-09-02T14:59:58;19.83;;;12.60;;
42834;SDS011;29335;50.526;30.458;2022-09-02T15:02:39;17.33;;;11.75;;
42834;SDS011;29335;50.526;30.458;2022-09-02T15:05:07;16.08;;;12.27;;
42834;SDS011;29335;50.526;30.458;2022-09-02T15:07:37;20.17;;;13.95;;
42834;SDS011;29335;50.526;30.458;2022-09-02T15:10:02;18.73;;;13.48;;
42834;SDS011;29335;50.526;30.458;2022-09-02T15:12:33;20.85;;;13.38;;
42834;SDS011;29335;50.526;30.458;2022-09-02T15:15:02;17.17;;;12.27;;
42834;SDS011;29335;50.526;30.458;2022-09-02T15:17:28;17.63;;;11.15;;
42834;SDS011;29335;50.526;30.458;2022-09-02T15:19:54;14.88;;;10.75;;
42834;SDS011;29335;50.526;30.458;2022-09-02T15:22:20;15.73;;;10.80;;
42834;SDS011;29335;50.526;30.458;2022-09-02T15:24:46;16.70;;;10.48;;
42834;SDS011;29335;50.526;30.458;2022-09-02T15:27:13;14.27;;;9.60;;
42834;SDS011;29335;50.526;30.458;2022-09-02T15:29:39;15.82;;;9.68;;
42834;SDS011;29335;50.526;30.458;2022-09-02T15:32:05;12.13;;;8.60;;
42834;SDS011;29335;50.526;30.458;2022-09-02T15:34:31;11.70;;;8.38;;
42834;SDS011;29335;50.526;30.458;2022-09-02T15:36:58;12.82;;;9.32;;
42834;SDS011;29335;50.526;30.458;2022-09-02T15:39:24;13.82;;;9.73;;
42834;SDS011;29335;50.526;30.458;2022-09-02T15:41:51;18.60;;;9.15;;
42834;SDS011;29335;50.526;30.458;2022-09-02T15:44:19;14.32;;;9.75;;
42834;SDS011;29335;50.526;30.458;2022-09-02T15:46:45;19.35;;;11.25;;
42834;SDS011;29335;50.526;30.458;2022-09-02T15:49:12;14.20;;;9.88;;
42834;SDS011;29335;50.526;30.458;2022-09-02T15:51:41;13.93;;;8.60;;
42834;SDS011;29335;50.526;30.458;2022-09-02T15:54:11;14.00;;;9.40;;
42834;SDS011;29335;50.526;30.458;2022-09-02T15:56:39;13.70;;;9.43;;
42834;SDS011;29335;50.526;30.458;2022-09-02T15:59:10;18.55;;;10.27;;
42834;SDS011;29335;50.526;30.458;2022-09-02T16:01:39;13.25;;;9.55;;
42834;SDS011;29335;50.526;30.458;2022-09-02T16:04:07;16.67;;;10.10;;
42834;SDS011;29335;50.526;30.458;2022-09-02T16:06:35;15.43;;;10.38;;
42834;SDS011;29335;50.526;30.458;2022-09-02T16:09:03;16.45;;;9.10;;
42834;SDS011;29335;50.526;30.458;2022-09-02T16:11:30;14.52;;;9.52;;
42834;SDS011;29335;50.526;30.458;2022-09-02T16:13:56;12.55;;;9.48;;
42834;SDS011;29335;50.526;30.458;2022-09-02T16:16:22;16.75;;;10.45;;
42834;SDS011;29335;50.526;30.458;2022-09-02T16:18:49;14.05;;;10.02;;
42834;SDS011;29335;50.526;30.458;2022-09-02T16:21:16;16.58;;;9.55;;
42834;SDS011;29335;50.526;30.458;2022-09-02T16:23:42;15.63;;;9.52;;
42834;SDS011;29335;50.526;30.458;2022-09-02T16:28:41;11.88;;;7.93;;
42834;SDS011;29335;50.526;30.458;2022-09-02T16:31:09;13.10;;;8.18;;
42834;SDS011;29335;50.526;30.458;2022-09-02T16:33:37;12.70;;;8.70;;
42834;SDS011;29335;50.526;30.458;2022-09-02T16:36:04;15.18;;;9.10;;
42834;SDS011;29335;50.526;30.458;2022-09-02T16:38:30;14.13;;;8.13;;
42834;SDS011;29335;50.526;30.458;2022-09-02T16:40:56;13.30;;;7.97;;
42834;SDS011;29335;50.526;30.458;2022-09-02T16:43:22;12.02;;;7.97;;
42834;SDS011;29335;50.526;30.458;2022-09-02T16:45:48;9.70;;;6.38;;
42834;SDS011;29335;50.526;30.458;2022-09-02T16:48:16;10.52;;;7.13;;
42834;SDS011;29335;50.526;30.458;2022-09-02T16:50:43;10.85;;;6.75;;